sensor_id;sensor_type;location;lat;lon;timestamp;temperature;humidity
75738;DHT22;64356;45.638;13.764;2023-02-15T00:01:18;19.00;49.10
75738;DHT22;64356;45.638;13.764;2023-02-15T00:03:43;19.10;49.10
75738;DHT22;64356;45.638;13.764;2023-02-15T00:06:09;19.00;49.00
75738;DHT22;64356;45.638;13.764;2023-02-15T00:08:35;19.10;49.20
75738;DHT22;64356;45.638;13.764;2023-02-15T00:13:30;19.00;49.10
75738;DHT22;64356;45.638;13.764;2023-02-15T00:16:01;19.00;49.10
75738;DHT22;64356;45.638;13.764;2023-02-15T00:18:27;19.00;49.10
75738;DHT22;64356;45.638;13.764;2023-02-15T00:20:52;19.10;49.10
75738;DHT22;64356;45.638;13.764;2023-02-15T00:23:18;19.00;49.00
75738;DHT22;64356;45.638;13.764;2023-02-15T00:25:44;19.00;49.00
75738;DHT22;64356;45.638;13.764;2023-02-15T00:28:09;19.00;49.10
75738;DHT22;64356;45.638;13.764;2023-02-15T00:30:35;19.00;49.10
75738;DHT22;64356;45.638;13.764;2023-02-15T00:33:01;19.00;49.10
75738;DHT22;64356;45.638;13.764;2023-02-15T00:35:26;19.00;49.10
75738;DHT22;64356;45.638;13.764;2023-02-15T00:37:52;19.00;49.10
75738;DHT22;64356;45.638;13.764;2023-02-15T00:40:18;19.00;49.20
75738;DHT22;64356;45.638;13.764;2023-02-15T00:42:44;18.90;49.20
75738;DHT22;64356;45.638;13.764;2023-02-15T00:45:09;19.00;49.30
75738;DHT22;64356;45.638;13.764;2023-02-15T00:47:35;18.90;49.20
75738;DHT22;64356;45.638;13.764;2023-02-15T00:50:01;19.00;49.20
75738;DHT22;64356;45.638;13.764;2023-02-15T00:52:28;18.90;49.20
75738;DHT22;64356;45.638;13.764;2023-02-15T00:54:54;18.90;49.20
75738;DHT22;64356;45.638;13.764;2023-02-15T00:57:19;19.00;49.20
75738;DHT22;64356;45.638;13.764;2023-02-15T00:59:45;18.90;49.20
75738;DHT22;64356;45.638;13.764;2023-02-15T01:02:11;18.90;49.20
75738;DHT22;64356;45.638;13.764;2023-02-15T01:04:36;18.90;49.20
75738;DHT22;64356;45.638;13.764;2023-02-15T01:07:02;18.90;49.20
75738;DHT22;64356;45.638;13.764;2023-02-15T01:09:29;18.90;49.30
75738;DHT22;64356;45.638;13.764;2023-02-15T01:11:54;18.90;49.30
75738;DHT22;64356;45.638;13.764;2023-02-15T01:14:20;18.90;49.20
75738;DHT22;64356;45.638;13.764;2023-02-15T01:16:46;18.90;49.20
75738;DHT22;64356;45.638;13.764;2023-02-15T01:19:12;18.90;49.20
75738;DHT22;64356;45.638;13.764;2023-02-15T01:21:38;18.90;49.30
75738;DHT22;64356;45.638;13.764;2023-02-15T01:24:13;18.90;49.30
75738;DHT22;64356;45.638;13.764;2023-02-15T01:26:39;18.90;49.30
75738;DHT22;64356;45.638;13.764;2023-02-15T01:29:04;18.90;49.40
75738;DHT22;64356;45.638;13.764;2023-02-15T01:31:30;18.80;49.30
75738;DHT22;64356;45.638;13.764;2023-02-15T01:33:56;18.80;49.30
75738;DHT22;64356;45.638;13.764;2023-02-15T01:36:22;18.80;49.30
75738;DHT22;64356;45.638;13.764;2023-02-15T01:38:47;18.80;49.20
75738;DHT22;64356;45.638;13.764;2023-02-15T01:41:14;18.80;49.20
75738;DHT22;64356;45.638;13.764;2023-02-15T01:43:57;18.80;49.20
75738;DHT22;64356;45.638;13.764;2023-02-15T01:49:16;18.80;49.20
75738;DHT22;64356;45.638;13.764;2023-02-15T01:51:44;18.80;49.20
75738;DHT22;64356;45.638;13.764;2023-02-15T01:54:30;18.80;49.20
75738;DHT22;64356;45.638;13.764;2023-02-15T01:57:02;18.80;49.20
75738;DHT22;64356;45.638;13.764;2023-02-15T01:59:29;18.80;49.30
75738;DHT22;64356;45.638;13.764;2023-02-15T02:01:59;18.80;49.30
75738;DHT22;64356;45.638;13.764;2023-02-15T02:04:39;18.80;49.20
75738;DHT22;64356;45.638;13.764;2023-02-15T02:07:07;18.70;49.20
75738;DHT22;64356;45.638;13.764;2023-02-15T02:09:34;18.80;49.30
75738;DHT22;64356;45.638;13.764;2023-02-15T02:12:01;18.70;49.20
75738;DHT22;64356;45.638;13.764;2023-02-15T02:14:27;18.80;49.20
75738;DHT22;64356;45.638;13.764;2023-02-15T02:17:11;18.80;49.20
75738;DHT22;64356;45.638;13.764;2023-02-15T02:33:54;18.70;49.30
75738;DHT22;64356;45.638;13.764;2023-02-15T02:42:15;18.70;49.30
75738;DHT22;64356;45.638;13.764;2023-02-15T02:45:10;18.70;49.30
75738;DHT22;64356;45.638;13.764;2023-02-15T02:47:52;18.70;49.30
75738;DHT22;64356;45.638;13.764;2023-02-15T02:50:23;18.70;49.30
75738;DHT22;64356;45.638;13.764;2023-02-15T02:52:52;18.70;49.30
75738;DHT22;64356;45.638;13.764;2023-02-15T02:55:34;18.70;49.30
75738;DHT22;64356;45.638;13.764;2023-02-15T02:58:24;18.70;49.30
75738;DHT22;64356;45.638;13.764;2023-02-15T03:01:03;18.70;49.30
75738;DHT22;64356;45.638;13.764;2023-02-15T03:04:10;18.70;49.30
75738;DHT22;64356;45.638;13.764;2023-02-15T03:06:46;18.70;49.20
75738;DHT22;64356;45.638;13.764;2023-02-15T03:09:22;18.60;49.20
75738;DHT22;64356;45.638;13.764;2023-02-15T03:11:50;18.60;49.70
75738;DHT22;64356;45.638;13.764;2023-02-15T03:14:17;18.60;49.20
75738;DHT22;64356;45.638;13.764;2023-02-15T03:16:46;18.60;49.20
75738;DHT22;64356;45.638;13.764;2023-02-15T03:19:26;18.60;49.20
75738;DHT22;64356;45.638;13.764;2023-02-15T03:21:57;18.60;49.20
75738;DHT22;64356;45.638;13.764;2023-02-15T03:24:43;18.60;49.20
75738;DHT22;64356;45.638;13.764;2023-02-15T03:27:14;18.60;49.20
75738;DHT22;64356;45.638;13.764;2023-02-15T03:29:45;18.60;49.20
75738;DHT22;64356;45.638;13.764;2023-02-15T03:32:12;18.60;49.20
75738;DHT22;64356;45.638;13.764;2023-02-15T03:34:40;18.60;49.20
75738;DHT22;64356;45.638;13.764;2023-02-15T03:39:58;18.60;49.30
75738;DHT22;64356;45.638;13.764;2023-02-15T03:42:45;18.60;49.30
75738;DHT22;64356;45.638;13.764;2023-02-15T03:45:16;18.60;49.30
75738;DHT22;64356;45.638;13.764;2023-02-15T03:47:46;18.50;49.20
75738;DHT22;64356;45.638;13.764;2023-02-15T03:50:27;18.60;49.30
75738;DHT22;64356;45.638;13.764;2023-02-15T03:53:16;18.60;49.20
75738;DHT22;64356;45.638;13.764;2023-02-15T03:55:46;18.60;49.20
75738;DHT22;64356;45.638;13.764;2023-02-15T03:58:12;18.60;49.20
75738;DHT22;64356;45.638;13.764;2023-02-15T04:01:17;18.60;49.20
75738;DHT22;64356;45.638;13.764;2023-02-15T04:04:11;18.50;49.20
75738;DHT22;64356;45.638;13.764;2023-02-15T04:06:40;18.60;49.30
75738;DHT22;64356;45.638;13.764;2023-02-15T04:09:06;18.50;49.20
75738;DHT22;64356;45.638;13.764;2023-02-15T04:11:50;18.50;49.20
75738;DHT22;64356;45.638;13.764;2023-02-15T04:14:16;18.60;49.20
75738;DHT22;64356;45.638;13.764;2023-02-15T04:16:59;18.90;48.50
75738;DHT22;64356;45.638;13.764;2023-02-15T04:19:25;19.30;47.50
75738;DHT22;64356;45.638;13.764;2023-02-15T04:22:09;19.70;46.40
75738;DHT22;64356;45.638;13.764;2023-02-15T04:24:53;20.00;45.40
75738;DHT22;64356;45.638;13.764;2023-02-15T04:27:45;20.10;44.90
75738;DHT22;64356;45.638;13.764;2023-02-15T04:30:12;20.20;44.40
75738;DHT22;64356;45.638;13.764;2023-02-15T04:32:38;20.30;44.20
75738;DHT22;64356;45.638;13.764;2023-02-15T04:35:05;20.40;43.90
75738;DHT22;64356;45.638;13.764;2023-02-15T04:37:31;20.50;43.80
75738;DHT22;64356;45.638;13.764;2023-02-15T04:39:57;20.60;43.60
75738;DHT22;64356;45.638;13.764;2023-02-15T04:42:26;20.60;43.30
75738;DHT22;64356;45.638;13.764;2023-02-15T04:44:52;20.70;43.30
75738;DHT22;64356;45.638;13.764;2023-02-15T04:47:17;20.70;43.00
75738;DHT22;64356;45.638;13.764;2023-02-15T04:49:43;20.80;42.90
75738;DHT22;64356;45.638;13.764;2023-02-15T04:52:09;20.90;42.80
75738;DHT22;64356;45.638;13.764;2023-02-15T04:54:35;20.90;42.70
75738;DHT22;64356;45.638;13.764;2023-02-15T04:57:01;20.90;42.50
75738;DHT22;64356;45.638;13.764;2023-02-15T04:59:26;21.00;42.60
75738;DHT22;64356;45.638;13.764;2023-02-15T05:01:52;21.00;42.40
75738;DHT22;64356;45.638;13.764;2023-02-15T05:04:18;21.10;42.30
75738;DHT22;64356;45.638;13.764;2023-02-15T05:06:44;21.10;42.10
75738;DHT22;64356;45.638;13.764;2023-02-15T05:09:11;21.10;42.20
75738;DHT22;64356;45.638;13.764;2023-02-15T05:11:37;21.10;42.00
75738;DHT22;64356;45.638;13.764;2023-02-15T05:14:03;21.20;42.00
75738;DHT22;64356;45.638;13.764;2023-02-15T05:16:29;21.20;41.90
75738;DHT22;64356;45.638;13.764;2023-02-15T05:18:55;21.30;41.80
75738;DHT22;64356;45.638;13.764;2023-02-15T05:21:20;21.40;41.60
75738;DHT22;64356;45.638;13.764;2023-02-15T05:23:46;21.50;41.50
75738;DHT22;64356;45.638;13.764;2023-02-15T05:26:14;21.50;41.20
75738;DHT22;64356;45.638;13.764;2023-02-15T05:29:00;21.70;41.20
75738;DHT22;64356;45.638;13.764;2023-02-15T05:31:25;21.70;40.80
75738;DHT22;64356;45.638;13.764;2023-02-15T05:33:51;21.80;40.70
75738;DHT22;64356;45.638;13.764;2023-02-15T05:36:17;21.90;40.50
75738;DHT22;64356;45.638;13.764;2023-02-15T05:38:42;22.00;40.30
75738;DHT22;64356;45.638;13.764;2023-02-15T05:41:09;22.10;40.20
75738;DHT22;64356;45.638;13.764;2023-02-15T05:43:36;22.20;39.90
75738;DHT22;64356;45.638;13.764;2023-02-15T05:46:03;22.30;39.80
75738;DHT22;64356;45.638;13.764;2023-02-15T05:48:29;22.40;39.60
75738;DHT22;64356;45.638;13.764;2023-02-15T05:51:02;22.40;39.30
75738;DHT22;64356;45.638;13.764;2023-02-15T05:53:29;22.50;39.20
75738;DHT22;64356;45.638;13.764;2023-02-15T05:55:55;22.60;39.10
75738;DHT22;64356;45.638;13.764;2023-02-15T05:58:28;22.70;39.00
75738;DHT22;64356;45.638;13.764;2023-02-15T06:00:54;22.70;38.90
75738;DHT22;64356;45.638;13.764;2023-02-15T06:03:20;22.70;38.80
75738;DHT22;64356;45.638;13.764;2023-02-15T06:05:46;22.70;38.70
75738;DHT22;64356;45.638;13.764;2023-02-15T06:08:12;22.70;38.80
75738;DHT22;64356;45.638;13.764;2023-02-15T06:10:37;22.60;38.80
75738;DHT22;64356;45.638;13.764;2023-02-15T06:13:05;22.60;39.00
75738;DHT22;64356;45.638;13.764;2023-02-15T06:15:31;22.50;39.10
75738;DHT22;64356;45.638;13.764;2023-02-15T06:17:57;22.50;39.20
75738;DHT22;64356;45.638;13.764;2023-02-15T06:20:23;22.40;39.40
75738;DHT22;64356;45.638;13.764;2023-02-15T06:22:48;22.30;39.50
75738;DHT22;64356;45.638;13.764;2023-02-15T06:25:14;22.20;39.70
75738;DHT22;64356;45.638;13.764;2023-02-15T06:27:43;22.10;39.80
75738;DHT22;64356;45.638;13.764;2023-02-15T06:30:10;22.00;40.10
75738;DHT22;64356;45.638;13.764;2023-02-15T06:32:36;22.00;40.10
75738;DHT22;64356;45.638;13.764;2023-02-15T06:35:01;22.00;40.10
75738;DHT22;64356;45.638;13.764;2023-02-15T06:37:27;22.00;40.50
75738;DHT22;64356;45.638;13.764;2023-02-15T06:39:53;21.90;40.40
75738;DHT22;64356;45.638;13.764;2023-02-15T06:42:19;22.00;40.70
75738;DHT22;64356;45.638;13.764;2023-02-15T06:44:45;22.00;40.40
75738;DHT22;64356;45.638;13.764;2023-02-15T06:47:11;22.00;40.40
75738;DHT22;64356;45.638;13.764;2023-02-15T06:49:37;22.00;40.40
75738;DHT22;64356;45.638;13.764;2023-02-15T06:52:03;22.00;40.30
75738;DHT22;64356;45.638;13.764;2023-02-15T06:54:29;22.00;41.00
75738;DHT22;64356;45.638;13.764;2023-02-15T06:56:55;22.10;40.60
75738;DHT22;64356;45.638;13.764;2023-02-15T06:59:21;22.10;40.00
75738;DHT22;64356;45.638;13.764;2023-02-15T07:01:47;21.80;38.90
75738;DHT22;64356;45.638;13.764;2023-02-15T07:04:14;21.30;38.90
75738;DHT22;64356;45.638;13.764;2023-02-15T07:06:40;21.00;39.80
75738;DHT22;64356;45.638;13.764;2023-02-15T07:09:06;20.80;41.30
75738;DHT22;64356;45.638;13.764;2023-02-15T07:11:31;20.90;41.90
75738;DHT22;64356;45.638;13.764;2023-02-15T07:14:16;21.00;42.70
75738;DHT22;64356;45.638;13.764;2023-02-15T07:16:42;21.30;42.90
75738;DHT22;64356;45.638;13.764;2023-02-15T07:19:07;21.40;42.60
75738;DHT22;64356;45.638;13.764;2023-02-15T07:21:34;21.50;42.90
75738;DHT22;64356;45.638;13.764;2023-02-15T07:24:00;21.70;42.90
75738;DHT22;64356;45.638;13.764;2023-02-15T07:26:26;21.70;42.30
75738;DHT22;64356;45.638;13.764;2023-02-15T07:28:51;21.80;42.20
75738;DHT22;64356;45.638;13.764;2023-02-15T07:31:17;21.80;42.10
75738;DHT22;64356;45.638;13.764;2023-02-15T07:33:43;21.80;42.30
75738;DHT22;64356;45.638;13.764;2023-02-15T07:36:09;21.80;42.50
75738;DHT22;64356;45.638;13.764;2023-02-15T07:38:38;21.90;43.00
75738;DHT22;64356;45.638;13.764;2023-02-15T07:41:09;21.90;42.60
75738;DHT22;64356;45.638;13.764;2023-02-15T07:43:38;21.90;42.50
75738;DHT22;64356;45.638;13.764;2023-02-15T07:46:07;21.90;43.40
75738;DHT22;64356;45.638;13.764;2023-02-15T07:48:34;22.00;43.30
75738;DHT22;64356;45.638;13.764;2023-02-15T07:51:01;22.00;43.70
75738;DHT22;64356;45.638;13.764;2023-02-15T07:53:28;22.00;43.00
75738;DHT22;64356;45.638;13.764;2023-02-15T07:55:54;22.00;42.80
75738;DHT22;64356;45.638;13.764;2023-02-15T07:58:20;22.10;42.60
75738;DHT22;64356;45.638;13.764;2023-02-15T08:00:46;22.00;42.70
75738;DHT22;64356;45.638;13.764;2023-02-15T08:03:27;22.00;42.70
75738;DHT22;64356;45.638;13.764;2023-02-15T08:05:58;22.00;43.10
75738;DHT22;64356;45.638;13.764;2023-02-15T08:08:25;22.00;43.10
75738;DHT22;64356;45.638;13.764;2023-02-15T08:19:12;22.20;43.00
75738;DHT22;64356;45.638;13.764;2023-02-15T08:21:40;22.20;43.40
75738;DHT22;64356;45.638;13.764;2023-02-15T08:24:07;22.10;43.20
75738;DHT22;64356;45.638;13.764;2023-02-15T08:26:34;22.20;43.00
75738;DHT22;64356;45.638;13.764;2023-02-15T08:29:01;22.20;42.90
75738;DHT22;64356;45.638;13.764;2023-02-15T08:31:27;22.10;42.80
75738;DHT22;64356;45.638;13.764;2023-02-15T08:33:55;22.10;43.10
75738;DHT22;64356;45.638;13.764;2023-02-15T08:36:24;22.10;43.20
75738;DHT22;64356;45.638;13.764;2023-02-15T08:38:50;22.20;43.20
75738;DHT22;64356;45.638;13.764;2023-02-15T08:43:46;22.20;43.10
75738;DHT22;64356;45.638;13.764;2023-02-15T08:46:13;22.20;43.30
75738;DHT22;64356;45.638;13.764;2023-02-15T08:48:39;22.20;43.80
75738;DHT22;64356;45.638;13.764;2023-02-15T08:51:14;22.20;43.00
75738;DHT22;64356;45.638;13.764;2023-02-15T08:53:41;22.20;43.30
75738;DHT22;64356;45.638;13.764;2023-02-15T08:56:08;22.20;43.20
75738;DHT22;64356;45.638;13.764;2023-02-15T08:58:34;22.30;43.40
75738;DHT22;64356;45.638;13.764;2023-02-15T09:01:00;22.30;43.60
75738;DHT22;64356;45.638;13.764;2023-02-15T09:03:28;22.30;43.70
75738;DHT22;64356;45.638;13.764;2023-02-15T09:05:59;22.40;43.80
75738;DHT22;64356;45.638;13.764;2023-02-15T09:08:26;22.50;43.30
75738;DHT22;64356;45.638;13.764;2023-02-15T09:10:52;22.60;43.10
75738;DHT22;64356;45.638;13.764;2023-02-15T09:13:17;22.70;43.20
75738;DHT22;64356;45.638;13.764;2023-02-15T09:15:43;22.70;43.20
75738;DHT22;64356;45.638;13.764;2023-02-15T09:18:09;22.90;43.10
75738;DHT22;64356;45.638;13.764;2023-02-15T09:20:37;22.90;43.10
75738;DHT22;64356;45.638;13.764;2023-02-15T09:23:03;22.80;43.20
75738;DHT22;64356;45.638;13.764;2023-02-15T09:25:29;22.80;43.40
75738;DHT22;64356;45.638;13.764;2023-02-15T09:27:54;22.70;43.60
75738;DHT22;64356;45.638;13.764;2023-02-15T09:30:20;22.70;43.70
75738;DHT22;64356;45.638;13.764;2023-02-15T09:32:47;22.60;43.60
75738;DHT22;64356;45.638;13.764;2023-02-15T09:35:13;22.70;43.80
75738;DHT22;64356;45.638;13.764;2023-02-15T09:37:38;22.70;43.70
75738;DHT22;64356;45.638;13.764;2023-02-15T09:40:04;22.70;43.70
75738;DHT22;64356;45.638;13.764;2023-02-15T09:48:30;22.70;43.90
75738;DHT22;64356;45.638;13.764;2023-02-15T09:56:31;22.70;44.00
75738;DHT22;64356;45.638;13.764;2023-02-15T10:02:18;22.90;45.60
75738;DHT22;64356;45.638;13.764;2023-02-15T10:14:12;23.00;45.10
75738;DHT22;64356;45.638;13.764;2023-02-15T10:28:19;23.20;43.40
75738;DHT22;64356;45.638;13.764;2023-02-15T10:30:48;23.20;43.30
75738;DHT22;64356;45.638;13.764;2023-02-15T10:33:38;23.20;43.30
75738;DHT22;64356;45.638;13.764;2023-02-15T10:39:23;23.20;43.00
75738;DHT22;64356;45.638;13.764;2023-02-15T11:06:00;23.40;42.70
75738;DHT22;64356;45.638;13.764;2023-02-15T11:08:32;23.50;43.20
75738;DHT22;64356;45.638;13.764;2023-02-15T11:11:02;23.50;43.10
75738;DHT22;64356;45.638;13.764;2023-02-15T11:13:39;23.50;42.70
75738;DHT22;64356;45.638;13.764;2023-02-15T11:16:12;23.60;42.70
75738;DHT22;64356;45.638;13.764;2023-02-15T11:19:01;23.60;42.70
75738;DHT22;64356;45.638;13.764;2023-02-15T11:21:39;23.60;41.90
75738;DHT22;64356;45.638;13.764;2023-02-15T11:24:11;23.70;41.60
75738;DHT22;64356;45.638;13.764;2023-02-15T11:32:38;23.80;41.30
75738;DHT22;64356;45.638;13.764;2023-02-15T11:40:25;23.90;40.30
75738;DHT22;64356;45.638;13.764;2023-02-15T11:42:53;23.90;40.70
75738;DHT22;64356;45.638;13.764;2023-02-15T11:45:31;23.90;40.10
75738;DHT22;64356;45.638;13.764;2023-02-15T11:47:58;24.00;39.90
75738;DHT22;64356;45.638;13.764;2023-02-15T11:50:29;24.00;40.10
75738;DHT22;64356;45.638;13.764;2023-02-15T11:53:02;24.00;39.60
75738;DHT22;64356;45.638;13.764;2023-02-15T11:55:30;24.10;39.50
75738;DHT22;64356;45.638;13.764;2023-02-15T12:00:43;24.10;40.00
75738;DHT22;64356;45.638;13.764;2023-02-15T12:03:27;24.20;40.00
75738;DHT22;64356;45.638;13.764;2023-02-15T12:05:58;24.20;40.70
75738;DHT22;64356;45.638;13.764;2023-02-15T12:08:40;24.20;40.10
75738;DHT22;64356;45.638;13.764;2023-02-15T12:11:15;24.20;40.40
75738;DHT22;64356;45.638;13.764;2023-02-15T12:14:01;24.30;40.00
75738;DHT22;64356;45.638;13.764;2023-02-15T12:16:28;24.40;40.60
75738;DHT22;64356;45.638;13.764;2023-02-15T12:18:59;24.40;40.40
75738;DHT22;64356;45.638;13.764;2023-02-15T12:21:34;24.50;40.60
75738;DHT22;64356;45.638;13.764;2023-02-15T12:24:29;24.60;40.40
75738;DHT22;64356;45.638;13.764;2023-02-15T12:27:06;24.60;40.50
75738;DHT22;64356;45.638;13.764;2023-02-15T12:30:04;24.60;40.50
75738;DHT22;64356;45.638;13.764;2023-02-15T12:32:34;24.70;40.70
75738;DHT22;64356;45.638;13.764;2023-02-15T12:38:00;24.80;40.30
75738;DHT22;64356;45.638;13.764;2023-02-15T12:40:32;24.80;40.30
75738;DHT22;64356;45.638;13.764;2023-02-15T12:42:59;24.80;40.30
75738;DHT22;64356;45.638;13.764;2023-02-15T12:45:31;24.80;40.30
75738;DHT22;64356;45.638;13.764;2023-02-15T12:50:39;24.90;40.30
75738;DHT22;64356;45.638;13.764;2023-02-15T12:58:21;24.50;34.60
75738;DHT22;64356;45.638;13.764;2023-02-15T13:03:27;24.40;37.00
75738;DHT22;64356;45.638;13.764;2023-02-15T13:05:55;24.40;37.00
75738;DHT22;64356;45.638;13.764;2023-02-15T13:08:33;24.50;37.60
75738;DHT22;64356;45.638;13.764;2023-02-15T13:11:22;24.60;37.20
75738;DHT22;64356;45.638;13.764;2023-02-15T13:13:54;24.60;37.20
75738;DHT22;64356;45.638;13.764;2023-02-15T13:16:30;24.60;36.70
75738;DHT22;64356;45.638;13.764;2023-02-15T13:18:57;24.70;36.90
75738;DHT22;64356;45.638;13.764;2023-02-15T13:21:33;24.70;35.70
75738;DHT22;64356;45.638;13.764;2023-02-15T13:24:05;24.80;35.90
75738;DHT22;64356;45.638;13.764;2023-02-15T13:26:32;24.80;35.50
75738;DHT22;64356;45.638;13.764;2023-02-15T13:29:06;24.80;35.80
75738;DHT22;64356;45.638;13.764;2023-02-15T13:31:34;24.80;35.30
75738;DHT22;64356;45.638;13.764;2023-02-15T13:51:04;24.40;33.60
75738;DHT22;64356;45.638;13.764;2023-02-15T13:54:01;24.40;33.40
75738;DHT22;64356;45.638;13.764;2023-02-15T13:56:40;24.40;33.40
75738;DHT22;64356;45.638;13.764;2023-02-15T14:10:01;24.10;34.00
75738;DHT22;64356;45.638;13.764;2023-02-15T14:18:31;24.00;35.40
75738;DHT22;64356;45.638;13.764;2023-02-15T14:21:21;23.80;35.60
75738;DHT22;64356;45.638;13.764;2023-02-15T14:28:01;23.30;36.60
75738;DHT22;64356;45.638;13.764;2023-02-15T14:30:03;23.20;37.70
75738;DHT22;64356;45.638;13.764;2023-02-15T14:32:34;23.20;37.60
75738;DHT22;64356;45.638;13.764;2023-02-15T14:35:39;23.20;37.50
75738;DHT22;64356;45.638;13.764;2023-02-15T14:38:32;23.10;37.30
75738;DHT22;64356;45.638;13.764;2023-02-15T14:41:10;23.00;37.00
75738;DHT22;64356;45.638;13.764;2023-02-15T14:44:47;23.00;36.90
75738;DHT22;64356;45.638;13.764;2023-02-15T14:49:32;22.80;36.80
75738;DHT22;64356;45.638;13.764;2023-02-15T14:52:04;22.80;36.80
75738;DHT22;64356;45.638;13.764;2023-02-15T15:04:34;22.40;36.70
75738;DHT22;64356;45.638;13.764;2023-02-15T15:07:20;22.30;36.70
75738;DHT22;64356;45.638;13.764;2023-02-15T15:09:58;22.30;36.70
75738;DHT22;64356;45.638;13.764;2023-02-15T15:14:52;22.20;37.10
75738;DHT22;64356;45.638;13.764;2023-02-15T15:20:13;22.20;37.60
75738;DHT22;64356;45.638;13.764;2023-02-15T15:22:41;22.10;38.00
75738;DHT22;64356;45.638;13.764;2023-02-15T15:27:56;21.60;39.10
75738;DHT22;64356;45.638;13.764;2023-02-15T15:35:35;21.00;40.40
75738;DHT22;64356;45.638;13.764;2023-02-15T15:43:39;20.90;41.10
75738;DHT22;64356;45.638;13.764;2023-02-15T15:49:30;21.00;41.30
75738;DHT22;64356;45.638;13.764;2023-02-15T15:51:59;21.10;41.40
75738;DHT22;64356;45.638;13.764;2023-02-15T15:54:26;21.20;41.40
75738;DHT22;64356;45.638;13.764;2023-02-15T15:57:01;21.20;41.60
75738;DHT22;64356;45.638;13.764;2023-02-15T15:59:33;21.20;41.80
75738;DHT22;64356;45.638;13.764;2023-02-15T16:02:13;21.30;41.80
75738;DHT22;64356;45.638;13.764;2023-02-15T16:04:40;21.30;41.90
75738;DHT22;64356;45.638;13.764;2023-02-15T16:10:04;21.20;42.10
75738;DHT22;64356;45.638;13.764;2023-02-15T16:12:32;21.20;42.30
75738;DHT22;64356;45.638;13.764;2023-02-15T16:15:02;21.20;42.40
75738;DHT22;64356;45.638;13.764;2023-02-15T16:17:31;21.20;42.50
75738;DHT22;64356;45.638;13.764;2023-02-15T16:20:11;21.20;42.70
75738;DHT22;64356;45.638;13.764;2023-02-15T16:22:39;21.10;42.80
75738;DHT22;64356;45.638;13.764;2023-02-15T16:27:49;21.10;43.00
75738;DHT22;64356;45.638;13.764;2023-02-15T16:30:32;21.10;43.60
75738;DHT22;64356;45.638;13.764;2023-02-15T16:33:14;21.00;43.30
75738;DHT22;64356;45.638;13.764;2023-02-15T16:35:53;21.00;43.40
75738;DHT22;64356;45.638;13.764;2023-02-15T16:43:44;20.90;44.40
75738;DHT22;64356;45.638;13.764;2023-02-15T16:46:13;20.90;43.90
75738;DHT22;64356;45.638;13.764;2023-02-15T16:48:46;20.90;44.50
75738;DHT22;64356;45.638;13.764;2023-02-15T16:51:23;20.90;44.00
75738;DHT22;64356;45.638;13.764;2023-02-15T16:53:50;20.80;44.00
75738;DHT22;64356;45.638;13.764;2023-02-15T16:56:25;20.80;44.00
75738;DHT22;64356;45.638;13.764;2023-02-15T16:58:54;20.80;44.20
75738;DHT22;64356;45.638;13.764;2023-02-15T17:01:24;20.80;44.20
75738;DHT22;64356;45.638;13.764;2023-02-15T17:04:09;20.70;44.30
75738;DHT22;64356;45.638;13.764;2023-02-15T17:06:36;20.70;45.00
75738;DHT22;64356;45.638;13.764;2023-02-15T17:09:06;20.70;44.50
75738;DHT22;64356;45.638;13.764;2023-02-15T17:11:42;20.70;44.60
75738;DHT22;64356;45.638;13.764;2023-02-15T17:17:15;20.70;44.70
75738;DHT22;64356;45.638;13.764;2023-02-15T17:19:51;20.60;44.80
75738;DHT22;64356;45.638;13.764;2023-02-15T17:22:22;20.60;45.00
75738;DHT22;64356;45.638;13.764;2023-02-15T17:24:50;20.60;45.20
75738;DHT22;64356;45.638;13.764;2023-02-15T17:27:25;20.60;45.30
75738;DHT22;64356;45.638;13.764;2023-02-15T17:29:56;20.60;45.40
75738;DHT22;64356;45.638;13.764;2023-02-15T17:32:25;20.60;45.60
75738;DHT22;64356;45.638;13.764;2023-02-15T17:35:07;20.50;46.10
75738;DHT22;64356;45.638;13.764;2023-02-15T17:40:25;20.60;45.80
75738;DHT22;64356;45.638;13.764;2023-02-15T17:42:51;20.50;46.00
75738;DHT22;64356;45.638;13.764;2023-02-15T17:45:18;20.50;46.00
75738;DHT22;64356;45.638;13.764;2023-02-15T17:47:46;20.50;46.20
75738;DHT22;64356;45.638;13.764;2023-02-15T17:50:26;20.50;46.40
75738;DHT22;64356;45.638;13.764;2023-02-15T17:52:54;20.50;46.60
75738;DHT22;64356;45.638;13.764;2023-02-15T17:55:22;20.50;46.70
75738;DHT22;64356;45.638;13.764;2023-02-15T17:58:01;20.40;46.20
75738;DHT22;64356;45.638;13.764;2023-02-15T18:00:29;20.40;46.20
75738;DHT22;64356;45.638;13.764;2023-02-15T18:03:13;20.40;46.50
75738;DHT22;64356;45.638;13.764;2023-02-15T18:05:57;20.30;47.00
75738;DHT22;64356;45.638;13.764;2023-02-15T18:08:42;20.30;47.20
75738;DHT22;64356;45.638;13.764;2023-02-15T18:11:26;20.30;47.30
75738;DHT22;64356;45.638;13.764;2023-02-15T18:14:09;20.30;47.30
75738;DHT22;64356;45.638;13.764;2023-02-15T18:16:36;20.30;47.20
75738;DHT22;64356;45.638;13.764;2023-02-15T18:19:05;20.30;47.30
75738;DHT22;64356;45.638;13.764;2023-02-15T18:21:34;20.30;47.60
75738;DHT22;64356;45.638;13.764;2023-02-15T18:24:00;20.30;47.80
75738;DHT22;64356;45.638;13.764;2023-02-15T18:26:26;20.30;47.90
75738;DHT22;64356;45.638;13.764;2023-02-15T18:28:52;20.30;47.90
75738;DHT22;64356;45.638;13.764;2023-02-15T18:31:18;20.20;47.80
75738;DHT22;64356;45.638;13.764;2023-02-15T18:33:47;20.20;47.90
75738;DHT22;64356;45.638;13.764;2023-02-15T18:36:25;20.20;47.90
75738;DHT22;64356;45.638;13.764;2023-02-15T18:38:55;20.30;47.90
75738;DHT22;64356;45.638;13.764;2023-02-15T18:41:22;20.30;47.90
75738;DHT22;64356;45.638;13.764;2023-02-15T18:43:49;20.20;48.00
75738;DHT22;64356;45.638;13.764;2023-02-15T18:46:16;20.20;48.00
75738;DHT22;64356;45.638;13.764;2023-02-15T18:48:42;20.20;48.40
75738;DHT22;64356;45.638;13.764;2023-02-15T18:51:19;20.20;48.40
75738;DHT22;64356;45.638;13.764;2023-02-15T18:53:46;20.20;48.50
75738;DHT22;64356;45.638;13.764;2023-02-15T18:56:15;20.20;48.60
75738;DHT22;64356;45.638;13.764;2023-02-15T18:58:41;20.20;48.60
75738;DHT22;64356;45.638;13.764;2023-02-15T19:01:19;20.20;48.70
75738;DHT22;64356;45.638;13.764;2023-02-15T19:03:47;20.20;48.80
75738;DHT22;64356;45.638;13.764;2023-02-15T19:06:18;20.20;48.70
75738;DHT22;64356;45.638;13.764;2023-02-15T19:08:44;20.10;48.50
75738;DHT22;64356;45.638;13.764;2023-02-15T19:11:19;20.10;48.50
75738;DHT22;64356;45.638;13.764;2023-02-15T19:13:48;20.00;48.30
75738;DHT22;64356;45.638;13.764;2023-02-15T19:16:32;20.00;48.10